sensor_id;sensor_type;location;lat;lon;timestamp;P1;durP1;ratioP1;P2;durP2;ratioP2
77384;SDS011;66443;49.122;8.346;2023-12-20T00:00:49;12.10;;;9.17;;
77384;SDS011;66443;49.122;8.346;2023-12-20T00:03:14;11.37;;;9.93;;
77384;SDS011;66443;49.122;8.346;2023-12-20T00:05:39;12.17;;;9.60;;
77384;SDS011;66443;49.122;8.346;2023-12-20T00:08:06;12.30;;;9.27;;
77384;SDS011;66443;49.122;8.346;2023-12-20T00:10:31;13.23;;;10.03;;
77384;SDS011;66443;49.122;8.346;2023-12-20T00:12:56;11.87;;;10.43;;
77384;SDS011;66443;49.122;8.346;2023-12-20T00:15:21;11.93;;;9.53;;
77384;SDS011;66443;49.122;8.346;2023-12-20T00:17:46;12.37;;;9.60;;
77384;SDS011;66443;49.122;8.346;2023-12-20T00:20:12;13.33;;;11.23;;
77384;SDS011;66443;49.122;8.346;2023-12-20T00:22:37;12.67;;;9.67;;
77384;SDS011;66443;49.122;8.346;2023-12-20T00:25:03;13.43;;;9.03;;
77384;SDS011;66443;49.122;8.346;2023-12-20T00:27:28;14.07;;;10.57;;
77384;SDS011;66443;49.122;8.346;2023-12-20T00:29:53;14.83;;;10.47;;
77384;SDS011;66443;49.122;8.346;2023-12-20T00:32:18;15.83;;;10.80;;
77384;SDS011;66443;49.122;8.346;2023-12-20T00:34:43;11.60;;;9.43;;
77384;SDS011;66443;49.122;8.346;2023-12-20T00:37:09;11.93;;;9.40;;
77384;SDS011;66443;49.122;8.346;2023-12-20T00:39:34;12.10;;;9.63;;
77384;SDS011;66443;49.122;8.346;2023-12-20T00:41:59;12.60;;;10.03;;
77384;SDS011;66443;49.122;8.346;2023-12-20T00:44:24;12.17;;;9.73;;
77384;SDS011;66443;49.122;8.346;2023-12-20T00:46:49;11.17;;;8.70;;
77384;SDS011;66443;49.122;8.346;2023-12-20T00:49:15;11.40;;;8.67;;
77384;SDS011;66443;49.122;8.346;2023-12-20T00:51:40;13.53;;;9.87;;
77384;SDS011;66443;49.122;8.346;2023-12-20T00:54:05;13.17;;;10.10;;
77384;SDS011;66443;49.122;8.346;2023-12-20T00:56:30;10.43;;;9.33;;
77384;SDS011;66443;49.122;8.346;2023-12-20T00:58:55;10.40;;;8.67;;
77384;SDS011;66443;49.122;8.346;2023-12-20T01:01:21;14.27;;;9.27;;
77384;SDS011;66443;49.122;8.346;2023-12-20T01:03:46;10.20;;;8.93;;
77384;SDS011;66443;49.122;8.346;2023-12-20T01:06:11;13.77;;;10.17;;
77384;SDS011;66443;49.122;8.346;2023-12-20T01:08:37;10.10;;;8.97;;
77384;SDS011;66443;49.122;8.346;2023-12-20T01:11:05;9.57;;;8.57;;
77384;SDS011;66443;49.122;8.346;2023-12-20T01:13:30;12.40;;;8.83;;
77384;SDS011;66443;49.122;8.346;2023-12-20T01:15:56;10.30;;;8.83;;
77384;SDS011;66443;49.122;8.346;2023-12-20T01:18:21;10.73;;;8.97;;
77384;SDS011;66443;49.122;8.346;2023-12-20T01:20:46;10.40;;;9.13;;
77384;SDS011;66443;49.122;8.346;2023-12-20T01:23:11;10.27;;;9.10;;
77384;SDS011;66443;49.122;8.346;2023-12-20T01:25:36;11.07;;;8.37;;
77384;SDS011;66443;49.122;8.346;2023-12-20T01:28:02;9.70;;;8.70;;
77384;SDS011;66443;49.122;8.346;2023-12-20T01:30:28;9.23;;;8.23;;
77384;SDS011;66443;49.122;8.346;2023-12-20T01:32:53;9.77;;;8.70;;
77384;SDS011;66443;49.122;8.346;2023-12-20T01:35:19;10.17;;;8.43;;
77384;SDS011;66443;49.122;8.346;2023-12-20T01:37:44;9.73;;;8.37;;
77384;SDS011;66443;49.122;8.346;2023-12-20T01:40:09;9.20;;;8.30;;
77384;SDS011;66443;49.122;8.346;2023-12-20T01:42:35;10.93;;;8.70;;
77384;SDS011;66443;49.122;8.346;2023-12-20T01:45:00;10.73;;;8.27;;
77384;SDS011;66443;49.122;8.346;2023-12-20T01:47:25;10.00;;;7.70;;
77384;SDS011;66443;49.122;8.346;2023-12-20T01:49:52;9.17;;;7.47;;
77384;SDS011;66443;49.122;8.346;2023-12-20T01:52:17;8.33;;;6.83;;
77384;SDS011;66443;49.122;8.346;2023-12-20T01:54:42;8.33;;;7.53;;
77384;SDS011;66443;49.122;8.346;2023-12-20T01:57:07;9.70;;;8.10;;
77384;SDS011;66443;49.122;8.346;2023-12-20T01:59:33;9.30;;;8.07;;
77384;SDS011;66443;49.122;8.346;2023-12-20T02:01:58;10.63;;;8.50;;
77384;SDS011;66443;49.122;8.346;2023-12-20T02:04:24;7.83;;;7.00;;
77384;SDS011;66443;49.122;8.346;2023-12-20T02:06:49;8.87;;;7.67;;
77384;SDS011;66443;49.122;8.346;2023-12-20T02:09:17;10.70;;;8.53;;
77384;SDS011;66443;49.122;8.346;2023-12-20T02:11:42;10.13;;;7.37;;
77384;SDS011;66443;49.122;8.346;2023-12-20T02:14:08;9.33;;;8.07;;
77384;SDS011;66443;49.122;8.346;2023-12-20T02:16:33;9.30;;;7.50;;
77384;SDS011;66443;49.122;8.346;2023-12-20T02:18:58;9.07;;;7.77;;
77384;SDS011;66443;49.122;8.346;2023-12-20T02:21:24;8.77;;;6.87;;
77384;SDS011;66443;49.122;8.346;2023-12-20T02:23:50;9.70;;;7.50;;
77384;SDS011;66443;49.122;8.346;2023-12-20T02:26:15;9.07;;;8.10;;
77384;SDS011;66443;49.122;8.346;2023-12-20T02:28:40;8.80;;;7.57;;
77384;SDS011;66443;49.122;8.346;2023-12-20T02:31:05;8.93;;;8.00;;
77384;SDS011;66443;49.122;8.346;2023-12-20T02:33:33;10.10;;;7.93;;
77384;SDS011;66443;49.122;8.346;2023-12-20T02:35:58;22.23;;;8.63;;
77384;SDS011;66443;49.122;8.346;2023-12-20T02:38:24;10.17;;;9.00;;
77384;SDS011;66443;49.122;8.346;2023-12-20T02:40:49;11.57;;;8.67;;
77384;SDS011;66443;49.122;8.346;2023-12-20T02:43:14;11.83;;;7.67;;
77384;SDS011;66443;49.122;8.346;2023-12-20T02:45:39;8.30;;;7.43;;
77384;SDS011;66443;49.122;8.346;2023-12-20T02:48:05;9.10;;;7.67;;
77384;SDS011;66443;49.122;8.346;2023-12-20T02:50:30;10.10;;;8.00;;
77384;SDS011;66443;49.122;8.346;2023-12-20T02:52:55;8.20;;;7.30;;
77384;SDS011;66443;49.122;8.346;2023-12-20T02:55:20;9.50;;;7.90;;
77384;SDS011;66443;49.122;8.346;2023-12-20T02:57:46;9.10;;;7.87;;
77384;SDS011;66443;49.122;8.346;2023-12-20T03:00:11;8.37;;;7.50;;
77384;SDS011;66443;49.122;8.346;2023-12-20T03:02:36;11.50;;;8.37;;
77384;SDS011;66443;49.122;8.346;2023-12-20T03:05:02;10.87;;;8.27;;
77384;SDS011;66443;49.122;8.346;2023-12-20T03:07:27;9.20;;;7.87;;
77384;SDS011;66443;49.122;8.346;2023-12-20T03:09:52;9.52;;;7.80;;
77384;SDS011;66443;49.122;8.346;2023-12-20T03:12:17;9.10;;;8.13;;
77384;SDS011;66443;49.122;8.346;2023-12-20T03:14:43;8.83;;;7.43;;
77384;SDS011;66443;49.122;8.346;2023-12-20T03:17:08;10.27;;;7.57;;
77384;SDS011;66443;49.122;8.346;2023-12-20T03:19:33;7.97;;;7.17;;
77384;SDS011;66443;49.122;8.346;2023-12-20T03:21:58;8.93;;;7.60;;
77384;SDS011;66443;49.122;8.346;2023-12-20T03:24:26;8.13;;;7.33;;
77384;SDS011;66443;49.122;8.346;2023-12-20T03:26:51;9.33;;;7.43;;
77384;SDS011;66443;49.122;8.346;2023-12-20T03:29:16;11.43;;;8.15;;
77384;SDS011;66443;49.122;8.346;2023-12-20T03:31:41;11.53;;;7.73;;
77384;SDS011;66443;49.122;8.346;2023-12-20T03:34:06;7.35;;;6.55;;
77384;SDS011;66443;49.122;8.346;2023-12-20T03:36:31;7.97;;;7.03;;
77384;SDS011;66443;49.122;8.346;2023-12-20T03:38:57;9.07;;;7.43;;
77384;SDS011;66443;49.122;8.346;2023-12-20T03:41:22;9.37;;;7.27;;
77384;SDS011;66443;49.122;8.346;2023-12-20T03:43:47;8.23;;;7.17;;
77384;SDS011;66443;49.122;8.346;2023-12-20T03:46:12;8.00;;;6.57;;
77384;SDS011;66443;49.122;8.346;2023-12-20T03:48:37;8.43;;;7.20;;
77384;SDS011;66443;49.122;8.346;2023-12-20T03:51:02;7.70;;;6.90;;
77384;SDS011;66443;49.122;8.346;2023-12-20T03:53:28;7.47;;;6.23;;
77384;SDS011;66443;49.122;8.346;2023-12-20T03:55:53;8.37;;;6.57;;
77384;SDS011;66443;49.122;8.346;2023-12-20T03:58:18;8.00;;;6.93;;
77384;SDS011;66443;49.122;8.346;2023-12-20T04:00:43;7.17;;;6.43;;
77384;SDS011;66443;49.122;8.346;2023-12-20T04:03:09;8.73;;;7.37;;
77384;SDS011;66443;49.122;8.346;2023-12-20T04:05:34;7.20;;;6.03;;
77384;SDS011;66443;49.122;8.346;2023-12-20T04:07:59;6.83;;;5.60;;
77384;SDS011;66443;49.122;8.346;2023-12-20T04:10:25;7.07;;;5.83;;
77384;SDS011;66443;49.122;8.346;2023-12-20T04:12:50;7.10;;;5.90;;
77384;SDS011;66443;49.122;8.346;2023-12-20T04:15:15;7.00;;;5.53;;
77384;SDS011;66443;49.122;8.346;2023-12-20T04:17:40;7.40;;;6.63;;
77384;SDS011;66443;49.122;8.346;2023-12-20T04:20:05;6.27;;;5.40;;
77384;SDS011;66443;49.122;8.346;2023-12-20T04:22:31;7.50;;;6.07;;
77384;SDS011;66443;49.122;8.346;2023-12-20T04:24:56;7.70;;;6.60;;
77384;SDS011;66443;49.122;8.346;2023-12-20T04:27:21;6.27;;;5.67;;
77384;SDS011;66443;49.122;8.346;2023-12-20T04:29:46;7.80;;;6.60;;
77384;SDS011;66443;49.122;8.346;2023-12-20T04:32:11;6.50;;;5.40;;
77384;SDS011;66443;49.122;8.346;2023-12-20T04:34:36;6.88;;;6.18;;
77384;SDS011;66443;49.122;8.346;2023-12-20T04:37:02;6.53;;;5.10;;
77384;SDS011;66443;49.122;8.346;2023-12-20T04:39:27;6.47;;;5.73;;
77384;SDS011;66443;49.122;8.346;2023-12-20T04:41:52;5.80;;;4.90;;
77384;SDS011;66443;49.122;8.346;2023-12-20T04:44:17;7.53;;;5.33;;
77384;SDS011;66443;49.122;8.346;2023-12-20T04:46:43;5.33;;;4.50;;
77384;SDS011;66443;49.122;8.346;2023-12-20T04:49:08;5.73;;;4.83;;
77384;SDS011;66443;49.122;8.346;2023-12-20T04:51:33;5.70;;;5.20;;
77384;SDS011;66443;49.122;8.346;2023-12-20T04:53:59;5.37;;;4.63;;
77384;SDS011;66443;49.122;8.346;2023-12-20T04:56:24;5.57;;;4.87;;
77384;SDS011;66443;49.122;8.346;2023-12-20T04:58:49;6.33;;;4.50;;
77384;SDS011;66443;49.122;8.346;2023-12-20T05:01:14;4.40;;;3.50;;
77384;SDS011;66443;49.122;8.346;2023-12-20T05:03:39;4.00;;;3.60;;
77384;SDS011;66443;49.122;8.346;2023-12-20T05:06:05;4.20;;;3.60;;
77384;SDS011;66443;49.122;8.346;2023-12-20T05:08:30;5.30;;;4.80;;
77384;SDS011;66443;49.122;8.346;2023-12-20T05:10:55;21.38;;;3.83;;
77384;SDS011;66443;49.122;8.346;2023-12-20T05:13:21;3.30;;;3.00;;
77384;SDS011;66443;49.122;8.346;2023-12-20T05:15:46;3.67;;;3.30;;
77384;SDS011;66443;49.122;8.346;2023-12-20T05:18:11;3.90;;;3.20;;
77384;SDS011;66443;49.122;8.346;2023-12-20T05:20:37;3.47;;;3.17;;
77384;SDS011;66443;49.122;8.346;2023-12-20T05:23:03;3.30;;;3.00;;
77384;SDS011;66443;49.122;8.346;2023-12-20T05:25:28;3.50;;;3.13;;
77384;SDS011;66443;49.122;8.346;2023-12-20T05:27:53;3.90;;;3.50;;
77384;SDS011;66443;49.122;8.346;2023-12-20T05:30:18;3.40;;;3.10;;
77384;SDS011;66443;49.122;8.346;2023-12-20T05:32:43;3.13;;;2.83;;
77384;SDS011;66443;49.122;8.346;2023-12-20T05:35:09;3.47;;;3.17;;
77384;SDS011;66443;49.122;8.346;2023-12-20T05:37:34;3.47;;;3.13;;
77384;SDS011;66443;49.122;8.346;2023-12-20T05:39:59;3.37;;;3.07;;
77384;SDS011;66443;49.122;8.346;2023-12-20T05:42:24;3.47;;;2.67;;
77384;SDS011;66443;49.122;8.346;2023-12-20T05:44:49;3.83;;;3.20;;
77384;SDS011;66443;49.122;8.346;2023-12-20T05:47:15;4.53;;;3.00;;
77384;SDS011;66443;49.122;8.346;2023-12-20T05:49:40;3.70;;;3.40;;
77384;SDS011;66443;49.122;8.346;2023-12-20T05:52:05;3.43;;;3.13;;
77384;SDS011;66443;49.122;8.346;2023-12-20T05:54:30;3.23;;;2.90;;
77384;SDS011;66443;49.122;8.346;2023-12-20T05:56:55;9.73;;;3.83;;
77384;SDS011;66443;49.122;8.346;2023-12-20T05:59:21;3.40;;;3.10;;
77384;SDS011;66443;49.122;8.346;2023-12-20T06:01:46;3.47;;;3.17;;
77384;SDS011;66443;49.122;8.346;2023-12-20T06:04:11;4.07;;;3.67;;
77384;SDS011;66443;49.122;8.346;2023-12-20T06:06:43;3.13;;;2.83;;
77384;SDS011;66443;49.122;8.346;2023-12-20T06:09:08;3.00;;;2.80;;
77384;SDS011;66443;49.122;8.346;2023-12-20T06:11:33;3.63;;;2.70;;
77384;SDS011;66443;49.122;8.346;2023-12-20T06:13:58;3.67;;;3.17;;
77384;SDS011;66443;49.122;8.346;2023-12-20T06:16:24;3.70;;;3.33;;
77384;SDS011;66443;49.122;8.346;2023-12-20T06:18:49;4.73;;;2.93;;
77384;SDS011;66443;49.122;8.346;2023-12-20T06:21:14;4.03;;;3.63;;
77384;SDS011;66443;49.122;8.346;2023-12-20T06:23:40;4.07;;;3.77;;
77384;SDS011;66443;49.122;8.346;2023-12-20T06:26:05;3.50;;;3.20;;
77384;SDS011;66443;49.122;8.346;2023-12-20T06:28:30;4.30;;;3.90;;
77384;SDS011;66443;49.122;8.346;2023-12-20T06:30:55;9.13;;;5.20;;
77384;SDS011;66443;49.122;8.346;2023-12-20T06:33:21;5.50;;;4.40;;
77384;SDS011;66443;49.122;8.346;2023-12-20T06:35:47;4.40;;;3.83;;
77384;SDS011;66443;49.122;8.346;2023-12-20T06:38:12;4.67;;;3.87;;
77384;SDS011;66443;49.122;8.346;2023-12-20T06:40:37;4.60;;;4.17;;
77384;SDS011;66443;49.122;8.346;2023-12-20T06:43:03;5.13;;;4.63;;
77384;SDS011;66443;49.122;8.346;2023-12-20T06:45:28;4.03;;;3.67;;
77384;SDS011;66443;49.122;8.346;2023-12-20T06:47:53;4.33;;;3.93;;
77384;SDS011;66443;49.122;8.346;2023-12-20T06:50:19;4.33;;;3.93;;
77384;SDS011;66443;49.122;8.346;2023-12-20T06:52:44;5.03;;;4.13;;
77384;SDS011;66443;49.122;8.346;2023-12-20T06:55:10;5.17;;;4.40;;
77384;SDS011;66443;49.122;8.346;2023-12-20T06:57:35;5.23;;;4.13;;
77384;SDS011;66443;49.122;8.346;2023-12-20T07:00:01;4.10;;;3.70;;
77384;SDS011;66443;49.122;8.346;2023-12-20T07:02:27;4.07;;;3.77;;
77384;SDS011;66443;49.122;8.346;2023-12-20T07:04:55;5.53;;;5.03;;
77384;SDS011;66443;49.122;8.346;2023-12-20T07:07:20;4.33;;;3.93;;
77384;SDS011;66443;49.122;8.346;2023-12-20T07:09:45;5.90;;;4.47;;
77384;SDS011;66443;49.122;8.346;2023-12-20T07:12:10;5.33;;;4.47;;
77384;SDS011;66443;49.122;8.346;2023-12-20T07:14:36;5.03;;;4.33;;
77384;SDS011;66443;49.122;8.346;2023-12-20T07:17:01;5.03;;;4.53;;
77384;SDS011;66443;49.122;8.346;2023-12-20T07:19:26;4.67;;;4.20;;
77384;SDS011;66443;49.122;8.346;2023-12-20T07:21:51;6.00;;;5.40;;
77384;SDS011;66443;49.122;8.346;2023-12-20T07:24:16;4.17;;;3.80;;
77384;SDS011;66443;49.122;8.346;2023-12-20T07:26:42;6.57;;;4.43;;
77384;SDS011;66443;49.122;8.346;2023-12-20T07:29:08;5.40;;;4.57;;
77384;SDS011;66443;49.122;8.346;2023-12-20T07:31:33;5.30;;;4.77;;
77384;SDS011;66443;49.122;8.346;2023-12-20T07:33:58;5.13;;;4.47;;
77384;SDS011;66443;49.122;8.346;2023-12-20T07:36:23;6.50;;;4.47;;
77384;SDS011;66443;49.122;8.346;2023-12-20T07:38:49;4.90;;;4.40;;
77384;SDS011;66443;49.122;8.346;2023-12-20T07:41:14;6.50;;;5.20;;
77384;SDS011;66443;49.122;8.346;2023-12-20T07:43:41;7.47;;;6.03;;
77384;SDS011;66443;49.122;8.346;2023-12-20T07:46:06;7.87;;;5.10;;
77384;SDS011;66443;49.122;8.346;2023-12-20T07:48:32;7.63;;;5.67;;
77384;SDS011;66443;49.122;8.346;2023-12-20T07:50:57;5.40;;;4.90;;
77384;SDS011;66443;49.122;8.346;2023-12-20T07:53:22;5.47;;;4.93;;
77384;SDS011;66443;49.122;8.346;2023-12-20T07:55:47;5.60;;;5.10;;
77384;SDS011;66443;49.122;8.346;2023-12-20T07:58:12;7.53;;;5.23;;
77384;SDS011;66443;49.122;8.346;2023-12-20T08:00:38;5.63;;;4.57;;
77384;SDS011;66443;49.122;8.346;2023-12-20T08:03:03;4.73;;;4.33;;
77384;SDS011;66443;49.122;8.346;2023-12-20T08:05:28;5.13;;;4.17;;
77384;SDS011;66443;49.122;8.346;2023-12-20T08:07:53;5.10;;;4.60;;
77384;SDS011;66443;49.122;8.346;2023-12-20T08:10:19;5.00;;;4.50;;
77384;SDS011;66443;49.122;8.346;2023-12-20T08:12:44;5.27;;;4.77;;
77384;SDS011;66443;49.122;8.346;2023-12-20T08:15:09;6.10;;;4.80;;
77384;SDS011;66443;49.122;8.346;2023-12-20T08:17:34;5.30;;;4.50;;
77384;SDS011;66443;49.122;8.346;2023-12-20T08:20:00;4.50;;;4.10;;
77384;SDS011;66443;49.122;8.346;2023-12-20T08:22:25;5.23;;;3.70;;
77384;SDS011;66443;49.122;8.346;2023-12-20T08:24:50;4.70;;;2.97;;
77384;SDS011;66443;49.122;8.346;2023-12-20T08:27:15;3.37;;;2.90;;
77384;SDS011;66443;49.122;8.346;2023-12-20T08:29:41;3.40;;;3.10;;
77384;SDS011;66443;49.122;8.346;2023-12-20T08:32:08;4.43;;;2.83;;
77384;SDS011;66443;49.122;8.346;2023-12-20T08:34:33;4.20;;;2.67;;
77384;SDS011;66443;49.122;8.346;2023-12-20T08:36:58;3.00;;;2.20;;
77384;SDS011;66443;49.122;8.346;2023-12-20T08:39:23;4.10;;;2.47;;
77384;SDS011;66443;49.122;8.346;2023-12-20T08:41:49;3.47;;;2.40;;
77384;SDS011;66443;49.122;8.346;2023-12-20T08:44:14;4.43;;;2.00;;
77384;SDS011;66443;49.122;8.346;2023-12-20T08:46:39;6.30;;;1.50;;
77384;SDS011;66443;49.122;8.346;2023-12-20T08:49:04;2.03;;;1.70;;
77384;SDS011;66443;49.122;8.346;2023-12-20T08:51:30;2.10;;;1.80;;
77384;SDS011;66443;49.122;8.346;2023-12-20T08:53:55;2.47;;;1.87;;
77384;SDS011;66443;49.122;8.346;2023-12-20T08:56:20;5.90;;;2.17;;
77384;SDS011;66443;49.122;8.346;2023-12-20T08:58:45;3.90;;;1.97;;
77384;SDS011;66443;49.122;8.346;2023-12-20T09:01:11;2.33;;;1.80;;
77384;SDS011;66443;49.122;8.346;2023-12-20T09:03:36;4.03;;;1.70;;
77384;SDS011;66443;49.122;8.346;2023-12-20T09:06:01;4.93;;;1.60;;
77384;SDS011;66443;49.122;8.346;2023-12-20T09:08:27;3.83;;;1.97;;
77384;SDS011;66443;49.122;8.346;2023-12-20T09:10:52;4.23;;;2.13;;
77384;SDS011;66443;49.122;8.346;2023-12-20T09:13:17;6.13;;;1.70;;
77384;SDS011;66443;49.122;8.346;2023-12-20T09:15:42;4.47;;;1.60;;
77384;SDS011;66443;49.122;8.346;2023-12-20T09:18:08;2.07;;;1.70;;
77384;SDS011;66443;49.122;8.346;2023-12-20T09:20:33;2.50;;;1.57;;
77384;SDS011;66443;49.122;8.346;2023-12-20T09:22:58;5.43;;;1.57;;
77384;SDS011;66443;49.122;8.346;2023-12-20T09:25:24;2.40;;;1.50;;
77384;SDS011;66443;49.122;8.346;2023-12-20T09:27:50;3.10;;;2.07;;
77384;SDS011;66443;49.122;8.346;2023-12-20T09:30:16;2.70;;;1.87;;
77384;SDS011;66443;49.122;8.346;2023-12-20T09:32:41;3.17;;;1.77;;
77384;SDS011;66443;49.122;8.346;2023-12-20T09:35:06;5.73;;;2.17;;
77384;SDS011;66443;49.122;8.346;2023-12-20T09:37:33;5.03;;;2.03;;
77384;SDS011;66443;49.122;8.346;2023-12-20T09:39:58;3.20;;;2.20;;
77384;SDS011;66443;49.122;8.346;2023-12-20T09:42:35;2.97;;;1.70;;
77384;SDS011;66443;49.122;8.346;2023-12-20T09:45:03;1.83;;;1.73;;
77384;SDS011;66443;49.122;8.346;2023-12-20T09:47:28;3.67;;;2.10;;
77384;SDS011;66443;49.122;8.346;2023-12-20T09:49:54;2.13;;;1.80;;
77384;SDS011;66443;49.122;8.346;2023-12-20T09:52:19;3.87;;;2.07;;
77384;SDS011;66443;49.122;8.346;2023-12-20T09:54:45;6.80;;;1.70;;
77384;SDS011;66443;49.122;8.346;2023-12-20T09:57:12;2.63;;;1.60;;
77384;SDS011;66443;49.122;8.346;2023-12-20T09:59:37;4.20;;;1.90;;
77384;SDS011;66443;49.122;8.346;2023-12-20T10:02:02;3.37;;;1.70;;
77384;SDS011;66443;49.122;8.346;2023-12-20T10:04:30;5.30;;;1.90;;
77384;SDS011;66443;49.122;8.346;2023-12-20T10:06:56;2.73;;;1.90;;
77384;SDS011;66443;49.122;8.346;2023-12-20T10:09:22;5.23;;;2.50;;
77384;SDS011;66443;49.122;8.346;2023-12-20T10:11:47;5.03;;;2.80;;
77384;SDS011;66443;49.122;8.346;2023-12-20T10:14:12;5.43;;;2.47;;
77384;SDS011;66443;49.122;8.346;2023-12-20T10:16:37;7.10;;;2.40;;
77384;SDS011;66443;49.122;8.346;2023-12-20T10:19:02;2.97;;;2.30;;
77384;SDS011;66443;49.122;8.346;2023-12-20T10:21:28;2.53;;;2.07;;
77384;SDS011;66443;49.122;8.346;2023-12-20T10:23:57;3.97;;;2.13;;
77384;SDS011;66443;49.122;8.346;2023-12-20T10:26:23;3.93;;;1.83;;
77384;SDS011;66443;49.122;8.346;2023-12-20T10:28:59;4.40;;;2.30;;
77384;SDS011;66443;49.122;8.346;2023-12-20T10:31:34;3.30;;;2.27;;
77384;SDS011;66443;49.122;8.346;2023-12-20T10:34:00;4.63;;;2.43;;
77384;SDS011;66443;49.122;8.346;2023-12-20T10:36:27;5.03;;;2.40;;
77384;SDS011;66443;49.122;8.346;2023-12-20T10:38:53;6.00;;;2.80;;
77384;SDS011;66443;49.122;8.346;2023-12-20T10:41:20;4.10;;;2.73;;
77384;SDS011;66443;49.122;8.346;2023-12-20T10:43:48;4.67;;;2.53;;
77384;SDS011;66443;49.122;8.346;2023-12-20T10:46:16;9.27;;;2.60;;
77384;SDS011;66443;49.122;8.346;2023-12-20T10:48:43;4.43;;;2.73;;
77384;SDS011;66443;49.122;8.346;2023-12-20T10:51:09;4.10;;;2.87;;
77384;SDS011;66443;49.122;8.346;2023-12-20T10:53:35;5.80;;;3.40;;
77384;SDS011;66443;49.122;8.346;2023-12-20T10:56:01;3.43;;;2.70;;
77384;SDS011;66443;49.122;8.346;2023-12-20T10:58:28;3.63;;;3.00;;
77384;SDS011;66443;49.122;8.346;2023-12-20T11:00:56;2.63;;;2.30;;
77384;SDS011;66443;49.122;8.346;2023-12-20T11:03:24;6.30;;;2.70;;
77384;SDS011;66443;49.122;8.346;2023-12-20T11:05:53;5.77;;;3.00;;
77384;SDS011;66443;49.122;8.346;2023-12-20T11:08:26;4.40;;;2.93;;
77384;SDS011;66443;49.122;8.346;2023-12-20T11:13:26;5.63;;;2.90;;
77384;SDS011;66443;49.122;8.346;2023-12-20T11:15:53;6.53;;;2.87;;
77384;SDS011;66443;49.122;8.346;2023-12-20T11:18:19;4.00;;;2.47;;
77384;SDS011;66443;49.122;8.346;2023-12-20T11:20:44;3.53;;;2.77;;
77384;SDS011;66443;49.122;8.346;2023-12-20T11:23:09;4.07;;;2.33;;
77384;SDS011;66443;49.122;8.346;2023-12-20T11:25:48;5.27;;;2.40;;
77384;SDS011;66443;49.122;8.346;2023-12-20T11:28:13;4.47;;;2.23;;
77384;SDS011;66443;49.122;8.346;2023-12-20T11:30:42;6.23;;;2.57;;
77384;SDS011;66443;49.122;8.346;2023-12-20T11:33:08;5.00;;;2.67;;
77384;SDS011;66443;49.122;8.346;2023-12-20T11:35:33;4.53;;;2.17;;
77384;SDS011;66443;49.122;8.346;2023-12-20T11:38:00;4.57;;;2.57;;
77384;SDS011;66443;49.122;8.346;2023-12-20T11:40:25;10.97;;;3.37;;
77384;SDS011;66443;49.122;8.346;2023-12-20T11:42:51;4.77;;;2.30;;
77384;SDS011;66443;49.122;8.346;2023-12-20T11:45:18;3.10;;;2.00;;
77384;SDS011;66443;49.122;8.346;2023-12-20T11:47:46;3.37;;;2.10;;
77384;SDS011;66443;49.122;8.346;2023-12-20T11:50:12;8.10;;;2.67;;
77384;SDS011;66443;49.122;8.346;2023-12-20T11:52:37;4.53;;;2.70;;
77384;SDS011;66443;49.122;8.346;2023-12-20T11:55:03;6.13;;;3.70;;
77384;SDS011;66443;49.122;8.346;2023-12-20T11:57:28;5.43;;;2.40;;
77384;SDS011;66443;49.122;8.346;2023-12-20T11:59:54;4.97;;;2.43;;
77384;SDS011;66443;49.122;8.346;2023-12-20T12:02:19;5.03;;;2.47;;
77384;SDS011;66443;49.122;8.346;2023-12-20T12:04:44;4.30;;;2.33;;
77384;SDS011;66443;49.122;8.346;2023-12-20T12:07:09;3.73;;;2.83;;
77384;SDS011;66443;49.122;8.346;2023-12-20T12:09:34;4.00;;;2.63;;
77384;SDS011;66443;49.122;8.346;2023-12-20T12:12:00;4.13;;;2.13;;
77384;SDS011;66443;49.122;8.346;2023-12-20T12:14:25;4.53;;;2.57;;
77384;SDS011;66443;49.122;8.346;2023-12-20T12:16:50;4.07;;;2.13;;
77384;SDS011;66443;49.122;8.346;2023-12-20T12:19:25;10.40;;;2.60;;
77384;SDS011;66443;49.122;8.346;2023-12-20T12:21:51;7.20;;;2.37;;
77384;SDS011;66443;49.122;8.346;2023-12-20T12:24:19;5.20;;;2.30;;
77384;SDS011;66443;49.122;8.346;2023-12-20T12:26:49;5.07;;;2.10;;
77384;SDS011;66443;49.122;8.346;2023-12-20T12:29:14;4.20;;;2.27;;
77384;SDS011;66443;49.122;8.346;2023-12-20T12:31:39;8.03;;;3.17;;
77384;SDS011;66443;49.122;8.346;2023-12-20T12:34:05;7.30;;;2.23;;
77384;SDS011;66443;49.122;8.346;2023-12-20T12:36:30;4.17;;;2.50;;
77384;SDS011;66443;49.122;8.346;2023-12-20T12:38:56;9.23;;;2.37;;
77384;SDS011;66443;49.122;8.346;2023-12-20T12:41:21;6.93;;;2.70;;
77384;SDS011;66443;49.122;8.346;2023-12-20T12:43:46;5.50;;;2.37;;
77384;SDS011;66443;49.122;8.346;2023-12-20T12:46:12;4.23;;;1.97;;
77384;SDS011;66443;49.122;8.346;2023-12-20T12:48:37;6.30;;;3.13;;
77384;SDS011;66443;49.122;8.346;2023-12-20T12:51:03;6.60;;;3.23;;
77384;SDS011;66443;49.122;8.346;2023-12-20T12:53:28;5.30;;;2.83;;
77384;SDS011;66443;49.122;8.346;2023-12-20T12:55:53;5.00;;;2.97;;
77384;SDS011;66443;49.122;8.346;2023-12-20T12:58:19;14.50;;;3.60;;
77384;SDS011;66443;49.122;8.346;2023-12-20T13:00:44;4.40;;;2.57;;
77384;SDS011;66443;49.122;8.346;2023-12-20T13:03:10;3.03;;;2.70;;
77384;SDS011;66443;49.122;8.346;2023-12-20T13:05:35;6.90;;;2.47;;
77384;SDS011;66443;49.122;8.346;2023-12-20T13:08:00;7.70;;;3.00;;
77384;SDS011;66443;49.122;8.346;2023-12-20T13:10:25;4.33;;;2.30;;
77384;SDS011;66443;49.122;8.346;2023-12-20T13:12:50;6.00;;;2.53;;
77384;SDS011;66443;49.122;8.346;2023-12-20T13:15:16;4.67;;;2.67;;
77384;SDS011;66443;49.122;8.346;2023-12-20T13:17:41;3.37;;;2.53;;
77384;SDS011;66443;49.122;8.346;2023-12-20T13:20:07;4.43;;;2.87;;
77384;SDS011;66443;49.122;8.346;2023-12-20T13:22:32;11.57;;;2.63;;
77384;SDS011;66443;49.122;8.346;2023-12-20T13:24:57;5.43;;;2.47;;
77384;SDS011;66443;49.122;8.346;2023-12-20T13:27:22;5.50;;;2.87;;
77384;SDS011;66443;49.122;8.346;2023-12-20T13:29:48;4.07;;;2.30;;
77384;SDS011;66443;49.122;8.346;2023-12-20T13:32:13;5.90;;;2.80;;
77384;SDS011;66443;49.122;8.346;2023-12-20T13:34:38;3.47;;;2.43;;
77384;SDS011;66443;49.122;8.346;2023-12-20T13:37:03;7.70;;;2.97;;
77384;SDS011;66443;49.122;8.346;2023-12-20T13:39:29;3.93;;;2.30;;
77384;SDS011;66443;49.122;8.346;2023-12-20T13:41:56;4.30;;;2.20;;
77384;SDS011;66443;49.122;8.346;2023-12-20T13:44:21;5.33;;;2.30;;
77384;SDS011;66443;49.122;8.346;2023-12-20T13:46:46;3.83;;;2.20;;
77384;SDS011;66443;49.122;8.346;2023-12-20T13:49:11;3.57;;;3.13;;
77384;SDS011;66443;49.122;8.346;2023-12-20T13:51:37;8.27;;;3.07;;
77384;SDS011;66443;49.122;8.346;2023-12-20T13:54:03;10.17;;;3.77;;
77384;SDS011;66443;49.122;8.346;2023-12-20T13:56:28;8.73;;;4.70;;
77384;SDS011;66443;49.122;8.346;2023-12-20T13:58:54;8.17;;;3.90;;
77384;SDS011;66443;49.122;8.346;2023-12-20T14:01:19;6.83;;;3.57;;
77384;SDS011;66443;49.122;8.346;2023-12-20T14:03:45;6.13;;;4.17;;
77384;SDS011;66443;49.122;8.346;2023-12-20T14:06:10;3.47;;;2.47;;
77384;SDS011;66443;49.122;8.346;2023-12-20T14:08:35;5.97;;;2.83;;
77384;SDS011;66443;49.122;8.346;2023-12-20T14:11:01;6.47;;;2.30;;
77384;SDS011;66443;49.122;8.346;2023-12-20T14:13:26;5.23;;;2.80;;
77384;SDS011;66443;49.122;8.346;2023-12-20T14:15:51;7.97;;;2.80;;
77384;SDS011;66443;49.122;8.346;2023-12-20T14:18:16;4.73;;;2.70;;
77384;SDS011;66443;49.122;8.346;2023-12-20T14:20:42;7.87;;;2.43;;
77384;SDS011;66443;49.122;8.346;2023-12-20T14:23:07;7.40;;;2.97;;
77384;SDS011;66443;49.122;8.346;2023-12-20T14:25:34;7.20;;;2.83;;
77384;SDS011;66443;49.122;8.346;2023-12-20T14:28:02;3.57;;;3.20;;
77384;SDS011;66443;49.122;8.346;2023-12-20T14:30:27;6.40;;;2.77;;
77384;SDS011;66443;49.122;8.346;2023-12-20T14:32:53;12.87;;;3.10;;
77384;SDS011;66443;49.122;8.346;2023-12-20T14:35:18;5.00;;;2.40;;
77384;SDS011;66443;49.122;8.346;2023-12-20T14:37:44;4.93;;;2.43;;